sim
Sign-in with your pilot id or email,
or register
Callsign
Passwort

Schedule Details

Flight Number: DLH2222 (1)
Departure: Munich Airport (EDDM) at 18:35
Arrival: Toulouse Blagnac Airport (LFBO) at 20:25
Route: Lufthansa Passenger Schedule. Enter filed route here before submitting Pirep.

Weather Information
Getting current METAR information for EDDM 281220Z 29004KT 9999 FEW020 BKN040 10/06 Q1012 NOSIG
Getting current METAR information for LFBO 281230Z AUTO 29016KT 9999 FEW043 SCT049 18/08 Q1019 NOSIG

Schedule Frequency

Route Map